Time;durP1;ratioP1;P1;durP2;ratioP2;P2;SDS_P1;SDS_P2;PMS_P1;PMS_P2;Temp;Humidity;BMP_temperature;BMP_pressure;BME280_temperature;BME280_humidity;BME280_pressure;Samples;Min_cycle;Max_cycle;Signal;HPM_P1;HPM_P2
2024/02/10 00:00:16;;;;;;;1.20;1.20;;;;;;;;;;1052865;23;20032;-76
2024/02/10 00:00:49;;;;;;;0.52;0.52;;;;;;;;;;1061455;22;20041;-78
2024/02/10 00:01:21;;;;;;;0.30;0.30;;;;;;;;;;1040969;28;20029;-76
2024/02/10 00:01:54;;;;;;;0.32;0.32;;;;;;;;;;1038795;28;20029;-75
2024/02/10 00:02:26;;;;;;;1.20;1.20;;;;;;;;;;1038637;28;20029;-75
2024/02/10 00:02:57;;;;;;;0.93;0.93;;;;;;;;;;1039975;28;20033;-76
2024/02/10 00:03:29;;;;;;;1.48;0.77;;;;;;;;;;1039528;28;20022;-76
2024/02/10 00:04:00;;;;;;;1.55;1.23;;;;;;;;;;1040066;28;20480;-76
2024/02/10 00:04:31;;;;;;;0.43;0.43;;;;;;;;;;1038711;28;20021;-76
2024/02/10 00:05:01;;;;;;;1.35;1.33;;;;;;;;;;1039522;28;20028;-76
2024/02/10 00:05:32;;;;;;;3.92;2.65;;;;;;;;;;1035111;28;20026;-76
2024/02/10 00:06:03;;;;;;;1.48;1.15;;;;;;;;;;1034553;28;20021;-76
2024/02/10 00:06:36;;;;;;;0.30;0.30;;;;;;;;;;1035252;28;20143;-76
2024/02/10 00:07:07;;;;;;;0.60;0.57;;;;;;;;;;1036002;28;20013;-75
2024/02/10 00:07:37;;;;;;;0.40;0.40;;;;;;;;;;1033535;28;20537;-75
2024/02/10 00:08:08;;;;;;;0.50;0.50;;;;;;;;;;1035621;28;20034;-75
2024/02/10 00:08:39;;;;;;;0.30;0.30;;;;;;;;;;1035273;28;20037;-75
2024/02/10 00:09:10;;;;;;;0.50;0.50;;;;;;;;;;1035047;28;20037;-75
2024/02/10 00:09:41;;;;;;;1.48;1.38;;;;;;;;;;1035126;28;20473;-75
2024/02/10 00:10:14;;;;;;;2.08;1.38;;;;;;;;;;1034249;28;20049;-75
2024/02/10 00:10:45;;;;;;;0.93;0.93;;;;;;;;;;1034824;28;20026;-75
2024/02/10 00:11:16;;;;;;;0.95;0.95;;;;;;;;;;1032458;28;20019;-75
2024/02/10 00:11:47;;;;;;;1.00;1.00;;;;;;;;;;1033825;28;20399;-75
2024/02/10 00:12:18;;;;;;;3.65;2.63;;;;;;;;;;1034349;28;20121;-75
2024/02/10 00:12:50;;;;;;;1.88;1.77;;;;;;;;;;1034071;28;20030;-76
2024/02/10 00:13:21;;;;;;;0.40;0.40;;;;;;;;;;1026467;28;20015;-76
2024/02/10 00:13:54;;;;;;;1.25;1.17;;;;;;;;;;1030419;28;20497;-75
2024/02/10 00:14:26;;;;;;;1.02;1.02;;;;;;;;;;1030933;28;20026;-76
2024/02/10 00:14:57;;;;;;;2.20;1.60;;;;;;;;;;1033908;28;20053;-75
2024/02/10 00:15:27;;;;;;;1.45;1.17;;;;;;;;;;1035865;28;20061;-75
2024/02/10 00:15:59;;;;;;;0.93;0.93;;;;;;;;;;1036442;28;20088;-75
2024/02/10 00:16:30;;;;;;;0.47;0.47;;;;;;;;;;1036436;28;20093;-75
2024/02/10 00:17:03;;;;;;;5.93;1.75;;;;;;;;;;1040727;28;20469;-75
2024/02/10 00:17:33;;;;;;;6.95;3.50;;;;;;;;;;1040420;28;20022;-75
2024/02/10 00:18:06;;;;;;;0.65;0.65;;;;;;;;;;1040741;28;20021;-75
2024/02/10 00:18:37;;;;;;;0.40;0.40;;;;;;;;;;1036143;28;20091;-76
2024/02/10 00:19:10;;;;;;;0.90;0.85;;;;;;;;;;1036147;28;20029;-76
2024/02/10 00:19:49;;;;;;;0.52;0.47;;;;;;;;;;1035959;28;20535;-76
2024/02/10 00:20:20;;;;;;;12.60;3.88;;;;;;;;;;1036185;28;20024;-75
2024/02/10 00:20:52;;;;;;;2.75;1.95;;;;;;;;;;1036299;28;20044;-75
2024/02/10 00:21:23;;;;;;;0.65;0.65;;;;;;;;;;1033496;28;20497;-76
2024/02/10 00:21:54;;;;;;;0.50;0.40;;;;;;;;;;1036335;28;20131;-75
2024/02/10 00:22:24;;;;;;;0.65;0.65;;;;;;;;;;1034855;28;20029;-75
2024/02/10 00:22:56;;;;;;;2.20;1.98;;;;;;;;;;1034425;28;20540;-75
2024/02/10 00:23:27;;;;;;;1.27;1.08;;;;;;;;;;1040277;28;20036;-75
2024/02/10 00:23:59;;;;;;;0.32;0.32;;;;;;;;;;1040655;28;20100;-75
2024/02/10 00:24:30;;;;;;;0.40;0.40;;;;;;;;;;1040423;28;20415;-75
2024/02/10 00:25:00;;;;;;;0.40;0.40;;;;;;;;;;1040688;28;20013;-75
2024/02/10 00:25:31;;;;;;;1.85;1.75;;;;;;;;;;1040291;28;20535;-75
2024/02/10 00:26:03;;;;;;;1.65;0.98;;;;;;;;;;1033970;28;20053;-75
2024/02/10 00:26:34;;;;;;;2.35;1.73;;;;;;;;;;1033807;28;20406;-75
2024/02/10 00:27:04;;;;;;;1.10;1.08;;;;;;;;;;1036263;28;20022;-75
2024/02/10 00:27:36;;;;;;;1.85;1.77;;;;;;;;;;1036299;28;20109;-75
2024/02/10 00:28:09;;;;;;;0.47;0.47;;;;;;;;;;1040714;28;20120;-75
2024/02/10 00:28:39;;;;;;;0.63;0.63;;;;;;;;;;1040461;28;20036;-75
2024/02/10 00:29:12;;;;;;;0.30;0.30;;;;;;;;;;1042649;28;20021;-74
2024/02/10 00:29:43;;;;;;;0.95;0.95;;;;;;;;;;1036583;28;20613;-75
2024/02/10 00:30:16;;;;;;;1.20;1.10;;;;;;;;;;1036167;28;20038;-75
2024/02/10 00:30:48;;;;;;;0.85;0.85;;;;;;;;;;1032007;28;20093;-75
2024/02/10 00:31:20;;;;;;;1.02;1.00;;;;;;;;;;1032675;28;20023;-75
2024/02/10 00:31:50;;;;;;;0.63;0.63;;;;;;;;;;1036284;28;20096;-75
2024/02/10 00:32:21;;;;;;;0.38;0.38;;;;;;;;;;1036656;28;20494;-75
2024/02/10 00:32:51;;;;;;;0.57;0.57;;;;;;;;;;1040564;28;20018;-75
2024/02/10 00:33:22;;;;;;;1.10;1.08;;;;;;;;;;1035908;28;20021;-75
2024/02/10 00:33:52;;;;;;;3.38;1.58;;;;;;;;;;1036177;28;20045;-75
2024/02/10 00:34:27;;;;;;;1.15;1.05;;;;;;;;;;1036054;28;20024;-75
2024/02/10 00:34:58;;;;;;;0.57;0.57;;;;;;;;;;1036223;28;20106;-75
2024/02/10 00:35:28;;;;;;;36.58;2.42;;;;;;;;;;1035892;28;20069;-75
2024/02/10 00:35:59;;;;;;;1.52;1.45;;;;;;;;;;1036981;28;20045;-75
2024/02/10 00:36:29;;;;;;;0.30;0.30;;;;;;;;;;1040380;28;20030;-75
2024/02/10 00:37:00;;;;;;;0.98;0.93;;;;;;;;;;1040661;28;20018;-75
2024/02/10 00:37:30;;;;;;;2.88;1.52;;;;;;;;;;1035661;28;20130;-75
2024/02/10 00:38:00;;;;;;;0.45;0.45;;;;;;;;;;1036310;28;20076;-76
2024/02/10 00:38:31;;;;;;;1.60;1.55;;;;;;;;;;1036092;28;20033;-75
2024/02/10 00:39:03;;;;;;;0.73;0.73;;;;;;;;;;1034443;28;20053;-75
2024/02/10 00:39:34;;;;;;;0.77;0.65;;;;;;;;;;1035934;28;20080;-75
2024/02/10 00:40:05;;;;;;;0.38;0.28;;;;;;;;;;1033997;28;20109;-75
2024/02/10 00:40:35;;;;;;;0.50;0.50;;;;;;;;;;1033928;28;20113;-75
2024/02/10 00:41:06;;;;;;;2.83;2.15;;;;;;;;;;1034315;28;20537;-75
2024/02/10 00:41:38;;;;;;;5.93;4.60;;;;;;;;;;1034086;28;20036;-75
2024/02/10 00:42:09;;;;;;;7.15;3.67;;;;;;;;;;1033670;28;20080;-75
2024/02/10 00:42:39;;;;;;;0.30;0.30;;;;;;;;;;1039390;28;20104;-75
2024/02/10 00:43:12;;;;;;;0.30;0.30;;;;;;;;;;1036002;28;20068;-75
2024/02/10 00:43:43;;;;;;;0.57;0.57;;;;;;;;;;1034142;28;20029;-75
2024/02/10 00:44:13;;;;;;;1.30;1.20;;;;;;;;;;1034341;28;20513;-75
2024/02/10 00:44:50;;;;;;;0.20;0.20;;;;;;;;;;1033823;28;20030;-75
2024/02/10 00:45:21;;;;;;;0.40;0.40;;;;;;;;;;1031048;28;20093;-75
2024/02/10 00:45:52;;;;;;;1.48;1.38;;;;;;;;;;1032295;28;20026;-75
2024/02/10 00:46:22;;;;;;;1.15;1.13;;;;;;;;;;1032963;28;20105;-75
2024/02/10 00:46:57;;;;;;;5.00;2.75;;;;;;;;;;1036463;28;20101;-75
2024/02/10 00:47:28;;;;;;;0.40;0.40;;;;;;;;;;1048289;23;21047;-75
2024/02/10 00:48:00;;;;;;;0.63;0.60;;;;;;;;;;1044510;28;20488;-75
2024/02/10 00:48:32;;;;;;;0.63;0.63;;;;;;;;;;1043168;28;20024;-75
2024/02/10 00:49:02;;;;;;;2.80;2.60;;;;;;;;;;1044986;28;20017;-75
2024/02/10 00:49:33;;;;;;;4.95;4.30;;;;;;;;;;1048512;28;20016;-75
2024/02/10 00:50:03;;;;;;;2.78;2.50;;;;;;;;;;1048914;28;20460;-75
2024/02/10 00:50:34;;;;;;;1.17;1.00;;;;;;;;;;1048600;28;20388;-75
2024/02/10 00:51:05;;;;;;;3.15;1.60;;;;;;;;;;1044167;28;20472;-75
2024/02/10 00:51:35;;;;;;;1.48;1.38;;;;;;;;;;1038731;28;20075;-75
2024/02/10 00:52:09;;;;;;;2.50;1.05;;;;;;;;;;1034326;28;20482;-75
2024/02/10 00:52:40;;;;;;;2.38;2.17;;;;;;;;;;1035933;28;20398;-75
2024/02/10 00:53:11;;;;;;;0.95;0.93;;;;;;;;;;1036384;28;20117;-76
2024/02/10 00:53:41;;;;;;;1.40;1.30;;;;;;;;;;1040115;28;20092;-76
2024/02/10 00:54:12;;;;;;;0.57;0.57;;;;;;;;;;1038253;28;20188;-77
2024/02/10 00:54:45;;;;;;;0.50;0.50;;;;;;;;;;1040107;28;20026;-75
2024/02/10 00:55:18;;;;;;;1.08;0.52;;;;;;;;;;1040044;28;20021;-74
2024/02/10 00:55:49;;;;;;;1.67;0.98;;;;;;;;;;1042335;28;20021;-75
2024/02/10 00:56:19;;;;;;;0.40;0.40;;;;;;;;;;1043163;28;20095;-75
2024/02/10 00:56:50;;;;;;;0.20;0.20;;;;;;;;;;1041959;28;20020;-74
2024/02/10 00:57:20;;;;;;;0.20;0.20;;;;;;;;;;1039836;28;20469;-75
2024/02/10 00:57:51;;;;;;;11.02;1.80;;;;;;;;;;1038332;28;20053;-75
2024/02/10 00:58:21;;;;;;;0.30;0.30;;;;;;;;;;1039967;28;20021;-75
2024/02/10 00:58:51;;;;;;;6.13;2.60;;;;;;;;;;1042621;28;20021;-75
2024/02/10 00:59:22;;;;;;;0.45;0.45;;;;;;;;;;1041017;28;20571;-75
2024/02/10 00:59:53;;;;;;;0.75;0.73;;;;;;;;;;1041892;28;20420;-75
2024/02/10 01:00:23;;;;;;;1.45;1.35;;;;;;;;;;1040104;28;20026;-75
2024/02/10 01:00:54;;;;;;;3.53;2.20;;;;;;;;;;1038338;28;20033;-75
2024/02/10 01:01:28;;;;;;;1.55;1.08;;;;;;;;;;1042988;28;20024;-75
2024/02/10 01:02:00;;;;;;;2.95;1.00;;;;;;;;;;1044626;28;20361;-75
2024/02/10 01:02:32;;;;;;;0.20;0.20;;;;;;;;;;1037703;28;20509;-75
2024/02/10 01:03:06;;;;;;;0.47;0.47;;;;;;;;;;1038314;28;20033;-75
2024/02/10 01:03:43;;;;;;;0.68;0.68;;;;;;;;;;1037439;28;20026;-75
2024/02/10 01:04:14;;;;;;;0.65;0.65;;;;;;;;;;1038086;28;20079;-75
2024/02/10 01:04:45;;;;;;;2.63;1.92;;;;;;;;;;1041696;28;20075;-75
2024/02/10 01:05:15;;;;;;;18.20;1.05;;;;;;;;;;1044441;28;20059;-75
2024/02/10 01:05:47;;;;;;;1.75;1.65;;;;;;;;;;1044542;28;20642;-75
2024/02/10 01:06:21;;;;;;;0.40;0.40;;;;;;;;;;1039988;28;20079;-76
2024/02/10 01:06:53;;;;;;;0.20;0.20;;;;;;;;;;1039357;28;20112;-75
2024/02/10 01:07:24;;;;;;;0.93;0.85;;;;;;;;;;1038623;28;20029;-76
2024/02/10 01:07:59;;;;;;;0.82;0.82;;;;;;;;;;1038955;28;20036;-76
2024/02/10 01:08:29;;;;;;;0.20;0.20;;;;;;;;;;1042017;28;20025;-75
2024/02/10 01:09:00;;;;;;;2.83;1.63;;;;;;;;;;1040110;28;20017;-76
2024/02/10 01:09:31;;;;;;;0.65;0.65;;;;;;;;;;1038676;28;20032;-76
2024/02/10 01:10:02;;;;;;;1.25;1.15;;;;;;;;;;1038018;28;20022;-76
2024/02/10 01:10:33;;;;;;;0.73;0.73;;;;;;;;;;1038263;28;20036;-76
2024/02/10 01:11:04;;;;;;;0.52;0.52;;;;;;;;;;1040224;28;20032;-76
2024/02/10 01:11:43;;;;;;;0.70;0.70;;;;;;;;;;1041727;28;20048;-76
2024/02/10 01:12:13;;;;;;;0.63;0.63;;;;;;;;;;1038723;28;20048;-75
2024/02/10 01:12:44;;;;;;;15.77;1.35;;;;;;;;;;1043161;28;20488;-75
2024/02/10 01:13:14;;;;;;;7.85;1.83;;;;;;;;;;1037142;28;20481;-76
2024/02/10 01:13:45;;;;;;;0.20;0.20;;;;;;;;;;1035775;28;20089;-75
2024/02/10 01:14:16;;;;;;;3.28;2.22;;;;;;;;;;1035941;28;20153;-75
2024/02/10 01:14:46;;;;;;;2.85;1.92;;;;;;;;;;1034965;28;20398;-76
2024/02/10 01:15:17;;;;;;;0.80;0.80;;;;;;;;;;1039667;28;20025;-76
2024/02/10 01:15:54;;;;;;;1.55;1.45;;;;;;;;;;1037581;28;20021;-75
2024/02/10 01:16:25;;;;;;;0.55;0.55;;;;;;;;;;1034663;28;20528;-76
2024/02/10 01:16:57;;;;;;;0.73;0.73;;;;;;;;;;1036633;28;20308;-76
2024/02/10 01:17:27;;;;;;;0.28;0.28;;;;;;;;;;1035079;28;20033;-76
2024/02/10 01:18:01;;;;;;;0.95;0.95;;;;;;;;;;1033308;28;20018;-76
2024/02/10 01:18:33;;;;;;;3.83;2.05;;;;;;;;;;1036853;28;20033;-76
2024/02/10 01:19:06;;;;;;;1.55;0.50;;;;;;;;;;1036377;28;20029;-76
2024/02/10 01:19:46;;;;;;;6.65;4.40;;;;;;;;;;1038638;28;20021;-76
2024/02/10 01:20:16;;;;;;;2.85;2.55;;;;;;;;;;1039842;28;20036;-76
2024/02/10 01:20:47;;;;;;;6.25;2.08;;;;;;;;;;1034794;28;20125;-76
2024/02/10 01:21:18;;;;;;;0.50;0.50;;;;;;;;;;1034100;28;20064;-76
2024/02/10 01:21:49;;;;;;;0.85;0.85;;;;;;;;;;1038759;28;20025;-76
2024/02/10 01:22:23;;;;;;;4.03;1.35;;;;;;;;;;1035328;28;20026;-76
2024/02/10 01:22:57;;;;;;;1.90;0.68;;;;;;;;;;1036098;28;20038;-76
2024/02/10 01:23:28;;;;;;;0.70;0.70;;;;;;;;;;1039474;28;20064;-76
2024/02/10 01:23:59;;;;;;;3.05;2.85;;;;;;;;;;1036617;28;20528;-76
2024/02/10 01:24:30;;;;;;;3.30;3.00;;;;;;;;;;1035629;28;20502;-76
2024/02/10 01:25:00;;;;;;;4.07;2.63;;;;;;;;;;1032888;28;20121;-76
2024/02/10 01:25:32;;;;;;;2.90;2.17;;;;;;;;;;1033181;28;20097;-76
2024/02/10 01:26:02;;;;;;;8.38;0.88;;;;;;;;;;1033476;28;20500;-75
2024/02/10 01:26:35;;;;;;;0.63;0.63;;;;;;;;;;1043522;23;20172;-76
2024/02/10 01:27:06;;;;;;;0.20;0.20;;;;;;;;;;1033204;28;20033;-75
2024/02/10 01:27:36;;;;;;;0.30;0.30;;;;;;;;;;1038508;28;20031;-76
2024/02/10 01:28:07;;;;;;;2.10;1.88;;;;;;;;;;1042270;28;20044;-76
2024/02/10 01:28:37;;;;;;;5.00;2.13;;;;;;;;;;1043297;28;20029;-76
2024/02/10 01:29:08;;;;;;;2.08;1.88;;;;;;;;;;1044031;28;20032;-76
2024/02/10 01:29:39;;;;;;;2.25;1.80;;;;;;;;;;1042240;28;20017;-76
2024/02/10 01:30:10;;;;;;;3.72;1.67;;;;;;;;;;1042011;28;20029;-76
2024/02/10 01:30:40;;;;;;;2.50;2.33;;;;;;;;;;1040768;28;20053;-76
2024/02/10 01:31:12;;;;;;;3.20;1.55;;;;;;;;;;1041391;28;20219;-76
2024/02/10 01:31:42;;;;;;;1.27;1.17;;;;;;;;;;1041277;28;20039;-76
2024/02/10 01:32:15;;;;;;;7.00;4.75;;;;;;;;;;1037755;28;20024;-76
2024/02/10 01:32:46;;;;;;;7.07;2.35;;;;;;;;;;1037827;28;20030;-76
2024/02/10 01:33:17;;;;;;;2.42;1.05;;;;;;;;;;1037171;28;20025;-75
2024/02/10 01:33:48;;;;;;;1.55;1.13;;;;;;;;;;1037024;28;20030;-76
2024/02/10 01:34:19;;;;;;;3.03;1.75;;;;;;;;;;1037628;28;20026;-76
2024/02/10 01:34:50;;;;;;;6.47;3.00;;;;;;;;;;1038044;28;20032;-76
2024/02/10 01:35:20;;;;;;;3.55;1.23;;;;;;;;;;1037699;28;20072;-76
2024/02/10 01:35:51;;;;;;;2.78;2.15;;;;;;;;;;1035882;28;20499;-76
2024/02/10 01:36:22;;;;;;;0.90;0.75;;;;;;;;;;1038161;28;20404;-76
2024/02/10 01:36:52;;;;;;;1.25;1.25;;;;;;;;;;1037063;28;20466;-76
2024/02/10 01:37:23;;;;;;;2.53;1.55;;;;;;;;;;1037623;28;20013;-75
2024/02/10 01:37:55;;;;;;;1.52;1.10;;;;;;;;;;1036835;28;20051;-76
2024/02/10 01:38:26;;;;;;;0.43;0.43;;;;;;;;;;1037874;28;20492;-77
2024/02/10 01:38:59;;;;;;;1.75;1.58;;;;;;;;;;1037721;28;20017;-78
2024/02/10 01:39:29;;;;;;;1.10;1.00;;;;;;;;;;1037745;28;20045;-75
2024/02/10 01:40:01;;;;;;;3.95;1.95;;;;;;;;;;1037442;28;20021;-76
2024/02/10 01:40:31;;;;;;;1.17;1.13;;;;;;;;;;1038865;28;20034;-76
2024/02/10 01:41:02;;;;;;;0.70;0.30;;;;;;;;;;1040099;28;20469;-77
2024/02/10 01:41:33;;;;;;;0.25;0.25;;;;;;;;;;1038421;28;20030;-76
2024/02/10 01:42:03;;;;;;;0.20;0.20;;;;;;;;;;1040115;28;20370;-76
2024/02/10 01:42:40;;;;;;;0.98;0.75;;;;;;;;;;1036723;28;20064;-76
2024/02/10 01:43:10;;;;;;;3.03;2.35;;;;;;;;;;1037238;28;20032;-76
2024/02/10 01:43:41;;;;;;;0.35;0.35;;;;;;;;;;1037178;28;20029;-76
2024/02/10 01:44:18;;;;;;;0.68;0.68;;;;;;;;;;1036317;28;20032;-78
2024/02/10 01:44:49;;;;;;;3.92;0.60;;;;;;;;;;1043259;23;20040;-76
2024/02/10 01:45:19;;;;;;;0.55;0.55;;;;;;;;;;1036893;28;20025;-76
2024/02/10 01:45:50;;;;;;;3.03;2.75;;;;;;;;;;1032898;28;20042;-77
2024/02/10 01:46:22;;;;;;;0.73;0.45;;;;;;;;;;1035355;28;20017;-77
2024/02/10 01:46:52;;;;;;;0.93;0.63;;;;;;;;;;1037430;28;20474;-77
2024/02/10 01:47:24;;;;;;;3.00;0.30;;;;;;;;;;1035040;28;20014;-76
2024/02/10 01:47:54;;;;;;;0.88;0.88;;;;;;;;;;1039720;28;20163;-76
2024/02/10 01:48:25;;;;;;;2.80;2.60;;;;;;;;;;1037204;28;20489;-76
2024/02/10 01:48:55;;;;;;;6.55;1.50;;;;;;;;;;1035558;28;20032;-76
2024/02/10 01:49:26;;;;;;;1.80;1.70;;;;;;;;;;1045455;23;20038;-76
2024/02/10 01:49:56;;;;;;;0.30;0.30;;;;;;;;;;1040487;28;20033;-77
2024/02/10 01:50:27;;;;;;;0.22;0.22;;;;;;;;;;1045912;28;20012;-76
2024/02/10 01:50:58;;;;;;;2.95;2.15;;;;;;;;;;1047703;28;21010;-76
2024/02/10 01:51:29;;;;;;;0.65;0.63;;;;;;;;;;1047872;28;20035;-76
2024/02/10 01:51:59;;;;;;;1.50;0.70;;;;;;;;;;1047876;28;20028;-76
2024/02/10 01:52:30;;;;;;;1.63;0.77;;;;;;;;;;1047792;28;20032;-76
2024/02/10 01:53:01;;;;;;;2.28;2.08;;;;;;;;;;1045149;28;20031;-76
2024/02/10 01:53:32;;;;;;;0.60;0.60;;;;;;;;;;1044073;28;20024;-76
2024/02/10 01:54:03;;;;;;;2.22;1.02;;;;;;;;;;1043477;28;20087;-76
2024/02/10 01:54:35;;;;;;;4.18;3.75;;;;;;;;;;1039324;28;20013;-76
2024/02/10 01:55:06;;;;;;;1.17;1.15;;;;;;;;;;1036398;28;20025;-76
2024/02/10 01:55:36;;;;;;;0.55;0.55;;;;;;;;;;1040573;28;20025;-76
2024/02/10 01:56:10;;;;;;;3.10;2.03;;;;;;;;;;1040859;28;20025;-76
2024/02/10 01:56:41;;;;;;;2.03;1.50;;;;;;;;;;1045805;28;20033;-76
2024/02/10 01:57:12;;;;;;;2.63;2.25;;;;;;;;;;1038577;28;20018;-75
2024/02/10 01:57:45;;;;;;;2.20;2.03;;;;;;;;;;1042506;28;20078;-76
2024/02/10 01:58:17;;;;;;;2.05;1.85;;;;;;;;;;1045133;28;20419;-75
2024/02/10 01:58:48;;;;;;;0.82;0.82;;;;;;;;;;1044900;28;20044;-75
2024/02/10 01:59:18;;;;;;;0.85;0.85;;;;;;;;;;1044068;28;20040;-75
2024/02/10 01:59:48;;;;;;;1.13;0.93;;;;;;;;;;1044567;28;20136;-75
2024/02/10 02:00:20;;;;;;;3.05;1.55;;;;;;;;;;1044161;28;20390;-75
2024/02/10 02:00:51;;;;;;;1.50;1.40;;;;;;;;;;1043516;28;20055;-75
2024/02/10 02:01:21;;;;;;;1.23;0.90;;;;;;;;;;1047627;28;20032;-75
2024/02/10 02:01:52;;;;;;;1.98;1.23;;;;;;;;;;1048025;28;20369;-75
2024/02/10 02:02:22;;;;;;;2.28;0.60;;;;;;;;;;1047593;28;20028;-76
2024/02/10 02:02:59;;;;;;;2.35;1.48;;;;;;;;;;1044306;28;20447;-75
2024/02/10 02:03:29;;;;;;;4.63;3.40;;;;;;;;;;1044744;28;20060;-77
2024/02/10 02:04:01;;;;;;;5.85;2.70;;;;;;;;;;1042034;28;20599;-76
2024/02/10 02:04:35;;;;;;;0.40;0.40;;;;;;;;;;1042510;28;20041;-75
2024/02/10 02:05:06;;;;;;;6.20;2.38;;;;;;;;;;1043843;28;20512;-75
2024/02/10 02:05:39;;;;;;;7.38;2.35;;;;;;;;;;1039509;28;20029;-75
2024/02/10 02:06:11;;;;;;;1.85;1.75;;;;;;;;;;1038169;28;20033;-75
2024/02/10 02:06:42;;;;;;;0.95;0.75;;;;;;;;;;1036895;28;20025;-75
2024/02/10 02:07:13;;;;;;;1.10;0.95;;;;;;;;;;1040175;28;20471;-77
2024/02/10 02:07:48;;;;;;;6.00;1.70;;;;;;;;;;1041374;28;20447;-75
2024/02/10 02:08:20;;;;;;;0.52;0.52;;;;;;;;;;1045722;28;20033;-75
2024/02/10 02:08:51;;;;;;;2.72;1.48;;;;;;;;;;1047072;28;20115;-75
2024/02/10 02:09:21;;;;;;;2.75;2.33;;;;;;;;;;1047491;28;20543;-75
2024/02/10 02:09:52;;;;;;;2.38;2.15;;;;;;;;;;1047369;28;20032;-75
2024/02/10 02:10:22;;;;;;;0.82;0.75;;;;;;;;;;1045155;28;20535;-75
2024/02/10 02:10:52;;;;;;;1.23;1.15;;;;;;;;;;1041410;28;20111;-75
2024/02/10 02:11:23;;;;;;;6.45;1.38;;;;;;;;;;1040617;28;20032;-75
2024/02/10 02:11:54;;;;;;;1.15;1.13;;;;;;;;;;1039816;28;20033;-75
2024/02/10 02:12:24;;;;;;;1.05;0.98;;;;;;;;;;1046010;28;20085;-75
2024/02/10 02:12:54;;;;;;;0.75;0.68;;;;;;;;;;1045624;28;20131;-76
2024/02/10 02:13:25;;;;;;;1.30;1.02;;;;;;;;;;1045713;28;20111;-75
2024/02/10 02:13:58;;;;;;;1.85;1.35;;;;;;;;;;1043257;28;20024;-75
2024/02/10 02:14:29;;;;;;;20.60;2.28;;;;;;;;;;1044776;28;20045;-75
2024/02/10 02:15:00;;;;;;;0.95;0.95;;;;;;;;;;1039121;28;20021;-75
2024/02/10 02:15:31;;;;;;;3.08;1.95;;;;;;;;;;1039177;28;20029;-78
2024/02/10 02:16:02;;;;;;;3.90;1.63;;;;;;;;;;1039521;28;20048;-75
2024/02/10 02:16:35;;;;;;;6.30;4.10;;;;;;;;;;1041196;28;20033;-75
2024/02/10 02:17:06;;;;;;;11.10;1.05;;;;;;;;;;1038339;28;20018;-75
2024/02/10 02:17:37;;;;;;;0.93;0.88;;;;;;;;;;1041803;28;20032;-75
2024/02/10 02:18:09;;;;;;;3.55;3.25;;;;;;;;;;1043999;28;20031;-75
2024/02/10 02:18:43;;;;;;;1.27;1.15;;;;;;;;;;1039918;28;20332;-76
2024/02/10 02:19:15;;;;;;;2.60;1.45;;;;;;;;;;1041429;28;20907;-76
2024/02/10 02:19:45;;;;;;;1.00;0.93;;;;;;;;;;1045039;28;20051;-76
2024/02/10 02:20:16;;;;;;;1.08;1.08;;;;;;;;;;1043429;28;20109;-75
2024/02/10 02:20:47;;;;;;;1.67;1.58;;;;;;;;;;1045639;28;20512;-75
2024/02/10 02:21:17;;;;;;;0.47;0.47;;;;;;;;;;1043617;28;20115;-75
2024/02/10 02:21:48;;;;;;;3.47;2.97;;;;;;;;;;1043935;28;20032;-76
2024/02/10 02:22:19;;;;;;;1.42;1.30;;;;;;;;;;1040887;28;20017;-75
2024/02/10 02:22:50;;;;;;;2.00;1.80;;;;;;;;;;1043238;28;20117;-76
2024/02/10 02:23:21;;;;;;;0.98;0.98;;;;;;;;;;1040959;28;20017;-76
2024/02/10 02:23:51;;;;;;;1.58;1.48;;;;;;;;;;1041794;28;20033;-75
2024/02/10 02:24:23;;;;;;;3.90;1.92;;;;;;;;;;1045142;28;20036;-76
2024/02/10 02:24:54;;;;;;;1.25;1.15;;;;;;;;;;1044014;28;20115;-76
2024/02/10 02:25:24;;;;;;;0.38;0.38;;;;;;;;;;1021764;28;20024;-75
2024/02/10 02:25:55;;;;;;;3.15;1.88;;;;;;;;;;1047365;23;20093;-75
2024/02/10 02:27:00;;;;;;;2.20;2.05;;;;;;;;;;1029477;28;20054;-75
2024/02/10 02:27:30;;;;;;;1.63;1.02;;;;;;;;;;1028860;28;20595;-76
2024/02/10 02:28:00;;;;;;;3.85;3.03;;;;;;;;;;1027971;28;20053;-75
2024/02/10 02:28:31;;;;;;;2.92;1.60;;;;;;;;;;1031110;28;20109;-75
2024/02/10 02:29:03;;;;;;;1.27;1.17;;;;;;;;;;1030836;28;21085;-75
2024/02/10 02:29:33;;;;;;;1.77;1.65;;;;;;;;;;1030547;28;20029;-75
2024/02/10 02:30:04;;;;;;;2.70;1.70;;;;;;;;;;1031338;28;20021;-75
2024/02/10 02:30:35;;;;;;;1.45;1.33;;;;;;;;;;1028335;28;20406;-74
2024/02/10 02:31:05;;;;;;;3.42;3.03;;;;;;;;;;1025809;28;20438;-75
2024/02/10 02:31:37;;;;;;;5.03;2.33;;;;;;;;;;1026314;28;20491;-76
2024/02/10 02:32:10;;;;;;;1.63;1.52;;;;;;;;;;1025805;28;20553;-76
2024/02/10 02:32:40;;;;;;;4.38;2.50;;;;;;;;;;1022723;29;20511;-75
2024/02/10 02:33:11;;;;;;;1.73;1.63;;;;;;;;;;1018532;29;20027;-75
2024/02/10 02:33:42;;;;;;;1.45;1.35;;;;;;;;;;1019941;29;20031;-75
2024/02/10 02:34:12;;;;;;;3.95;3.15;;;;;;;;;;1022452;28;20034;-75
2024/02/10 02:34:44;;;;;;;18.42;3.05;;;;;;;;;;1026089;28;20071;-75
2024/02/10 02:35:15;;;;;;;3.03;0.98;;;;;;;;;;1026774;28;20029;-75
2024/02/10 02:35:46;;;;;;;7.97;1.67;;;;;;;;;;1026979;28;20030;-75
2024/02/10 02:36:18;;;;;;;3.83;1.67;;;;;;;;;;1026166;28;20039;-75
2024/02/10 02:36:52;;;;;;;2.45;2.35;;;;;;;;;;1027180;28;20720;-76
2024/02/10 02:37:23;;;;;;;6.82;3.17;;;;;;;;;;1025942;28;20034;-76
2024/02/10 02:37:55;;;;;;;2.65;1.65;;;;;;;;;;1026655;28;20030;-75
2024/02/10 02:38:26;;;;;;;2.17;1.98;;;;;;;;;;1027463;28;20109;-75
2024/02/10 02:38:58;;;;;;;2.28;2.08;;;;;;;;;;1028201;28;20054;-76
2024/02/10 02:39:30;;;;;;;0.30;0.30;;;;;;;;;;1025798;28;20577;-76
2024/02/10 02:40:03;;;;;;;4.20;3.17;;;;;;;;;;1026911;28;20026;-75
2024/02/10 02:40:33;;;;;;;1.63;1.52;;;;;;;;;;1026809;28;20045;-77
2024/02/10 02:41:04;;;;;;;0.73;0.68;;;;;;;;;;1026345;28;20058;-75
2024/02/10 02:41:34;;;;;;;0.63;0.63;;;;;;;;;;1026221;28;20035;-76
2024/02/10 02:42:08;;;;;;;3.00;2.80;;;;;;;;;;1027650;28;20026;-76
2024/02/10 02:42:39;;;;;;;10.70;2.47;;;;;;;;;;1026852;28;20022;-75
2024/02/10 02:43:12;;;;;;;10.32;4.60;;;;;;;;;;1026875;28;20019;-75
2024/02/10 02:43:45;;;;;;;9.50;2.00;;;;;;;;;;1025986;28;20376;-75
2024/02/10 02:44:16;;;;;;;1.80;1.48;;;;;;;;;;1026423;28;20033;-76
2024/02/10 02:44:47;;;;;;;12.02;3.40;;;;;;;;;;1027436;28;20484;-76
2024/02/10 02:45:17;;;;;;;1.42;1.33;;;;;;;;;;1041635;23;20042;-75
2024/02/10 02:45:48;;;;;;;0.68;0.68;;;;;;;;;;1042376;23;20064;-75
2024/02/10 02:46:18;;;;;;;4.70;3.40;;;;;;;;;;1033805;28;20026;-76
2024/02/10 02:46:49;;;;;;;1.70;1.58;;;;;;;;;;1037476;28;20465;-76
2024/02/10 02:47:20;;;;;;;5.35;2.72;;;;;;;;;;1037034;28;20024;-76
2024/02/10 02:47:51;;;;;;;0.68;0.68;;;;;;;;;;1036539;28;20048;-75
2024/02/10 02:48:21;;;;;;;0.40;0.40;;;;;;;;;;1040904;28;20036;-76
2024/02/10 02:48:54;;;;;;;1.38;1.30;;;;;;;;;;1038825;28;20021;-76
2024/02/10 02:49:25;;;;;;;0.50;0.50;;;;;;;;;;1038815;28;20425;-76
2024/02/10 02:49:55;;;;;;;7.97;3.22;;;;;;;;;;1040727;28;20044;-77
2024/02/10 02:50:26;;;;;;;0.40;0.40;;;;;;;;;;1036894;28;20025;-78
2024/02/10 02:50:57;;;;;;;2.45;2.25;;;;;;;;;;1039029;23;20043;-76
2024/02/10 02:51:27;;;;;;;1.02;0.85;;;;;;;;;;1027273;28;20026;-76
2024/02/10 02:51:58;;;;;;;1.83;1.27;;;;;;;;;;1026914;28;20133;-76
2024/02/10 02:52:30;;;;;;;1.65;1.55;;;;;;;;;;1031115;28;20018;-76
2024/02/10 02:53:03;;;;;;;1.30;1.20;;;;;;;;;;1035393;28;20058;-76
2024/02/10 02:53:34;;;;;;;2.38;2.25;;;;;;;;;;1033857;28;20473;-76
2024/02/10 02:54:05;;;;;;;0.10;0.10;;;;;;;;;;1035304;28;20027;-78
2024/02/10 02:54:35;;;;;;;17.42;1.45;;;;;;;;;;1031618;28;20085;-76
2024/02/10 02:55:08;;;;;;;2.78;1.17;;;;;;;;;;1029552;28;20031;-77
2024/02/10 02:55:45;;;;;;;0.20;0.20;;;;;;;;;;1027896;28;20018;-76
2024/02/10 02:56:18;;;;;;;0.32;0.32;;;;;;;;;;1022633;28;20031;-77
2024/02/10 02:56:52;;;;;;;0.85;0.25;;;;;;;;;;1024196;28;20027;-79
2024/02/10 02:57:23;;;;;;;0.80;0.73;;;;;;;;;;1026765;28;20051;-76
2024/02/10 02:57:53;;;;;;;1.75;1.55;;;;;;;;;;1028481;28;20113;-75
2024/02/10 02:58:24;;;;;;;2.20;2.05;;;;;;;;;;1026516;28;20026;-77
2024/02/10 02:58:56;;;;;;;1.77;0.82;;;;;;;;;;1026540;28;20026;-77
2024/02/10 02:59:27;;;;;;;2.47;1.52;;;;;;;;;;1044094;23;20053;-80
2024/02/10 02:59:58;;;;;;;0.52;0.52;;;;;;;;;;1037469;28;20021;-76
2024/02/10 03:00:31;;;;;;;1.77;1.17;;;;;;;;;;1039977;28;20021;-77
2024/02/10 03:01:04;;;;;;;1.10;1.05;;;;;;;;;;1037800;28;20577;-76
2024/02/10 03:01:35;;;;;;;0.10;0.10;;;;;;;;;;1039101;28;20558;-76
2024/02/10 03:02:05;;;;;;;0.63;0.55;;;;;;;;;;1034582;28;20030;-77
2024/02/10 03:02:41;;;;;;;1.17;1.10;;;;;;;;;;1031607;28;20026;-79
2024/02/10 03:03:12;;;;;;;0.90;0.90;;;;;;;;;;1034164;28;20025;-76
2024/02/10 03:03:46;;;;;;;0.50;0.50;;;;;;;;;;1032083;28;20331;-76
2024/02/10 03:04:18;;;;;;;4.28;1.30;;;;;;;;;;1036097;28;20021;-77
2024/02/10 03:04:52;;;;;;;1.15;1.05;;;;;;;;;;1029915;28;20094;-76
2024/02/10 03:05:59;;;;;;;0.65;0.65;;;;;;;;;;1048023;23;19932;-76
2024/02/10 03:06:29;;;;;;;1.98;0.70;;;;;;;;;;1054305;23;20029;-78
2024/02/10 03:07:00;;;;;;;1.95;1.35;;;;;;;;;;1043976;23;20092;-77
2024/02/10 03:07:33;;;;;;;1.10;1.08;;;;;;;;;;1042091;28;20469;-77
2024/02/10 03:08:05;;;;;;;3.75;0.73;;;;;;;;;;1040132;28;20190;-77
2024/02/10 03:08:36;;;;;;;0.55;0.55;;;;;;;;;;1042031;28;20025;-75
2024/02/10 03:09:08;;;;;;;1.95;1.85;;;;;;;;;;1041807;28;20024;-76
2024/02/10 03:09:39;;;;;;;0.55;0.50;;;;;;;;;;1041638;28;20021;-76